Time;durP1;ratioP1;P1;durP2;ratioP2;P2;SDS_P1;SDS_P2;PMS_P1;PMS_P2;Temp;Humidity;BMP_temperature;BMP_pressure;BME280_temperature;BME280_humidity;BME280_pressure;Samples;Min_cycle;Max_cycle;Signal;HPM_P1;HPM_P2
2023/05/11 00:01:21;;;;;;;0.70;0.60;;;;;;;;;;4937738;29;20496;-81
2023/05/11 00:03:48;;;;;;;0.70;0.70;;;;;;;;;;4936273;29;21103;-79
2023/05/11 00:06:17;;;;;;;0.80;0.80;;;;;;;;;;4936941;29;20448;-78
2023/05/11 00:08:47;;;;;;;0.80;0.80;;;;;;;;;;4937500;28;21041;-78
2023/05/11 00:11:17;;;;;;;0.70;0.70;;;;;;;;;;4937888;29;20441;-80
2023/05/11 00:13:44;;;;;;;0.70;0.70;;;;;;;;;;4928494;29;20489;-79
2023/05/11 00:16:11;;;;;;;0.70;0.60;;;;;;;;;;4940640;29;20458;-79
2023/05/11 00:18:38;;;;;;;0.70;0.70;;;;;;;;;;4940679;29;20448;-80
2023/05/11 00:21:05;;;;;;;0.70;0.70;;;;;;;;;;4933476;29;20447;-80
2023/05/11 00:23:33;;;;;;;0.70;0.70;;;;;;;;;;4937470;29;20471;-80
2023/05/11 00:26:00;;;;;;;0.70;0.70;;;;;;;;;;4944525;29;20936;-81
2023/05/11 00:28:27;;;;;;;0.70;0.70;;;;;;;;;;4923149;29;20853;-82
2023/05/11 00:30:54;;;;;;;0.70;0.60;;;;;;;;;;4941057;28;20491;-82
2023/05/11 00:33:21;;;;;;;0.70;0.70;;;;;;;;;;4920623;29;20467;-79
2023/05/11 00:35:48;;;;;;;0.70;0.70;;;;;;;;;;4937012;29;20868;-79
2023/05/11 00:38:15;;;;;;;0.60;0.60;;;;;;;;;;4941175;29;20501;-80
2023/05/11 00:40:43;;;;;;;0.70;0.60;;;;;;;;;;4940026;29;20988;-81
2023/05/11 00:43:10;;;;;;;0.70;0.70;;;;;;;;;;4919305;29;20467;-81
2023/05/11 00:45:38;;;;;;;0.70;0.70;;;;;;;;;;4940923;29;20503;-80
2023/05/11 00:48:05;;;;;;;0.70;0.70;;;;;;;;;;4939670;28;20469;-81
2023/05/11 00:50:33;;;;;;;0.80;0.80;;;;;;;;;;4937558;29;20989;-80
2023/05/11 00:53:00;;;;;;;0.70;0.63;;;;;;;;;;4943055;29;20477;-80
2023/05/11 00:55:27;;;;;;;0.70;0.60;;;;;;;;;;4941135;29;20449;-80
2023/05/11 00:57:55;;;;;;;0.70;0.70;;;;;;;;;;4941664;29;20444;-80
2023/05/11 01:00:22;;;;;;;0.70;0.70;;;;;;;;;;4942112;29;20470;-82
2023/05/11 01:02:50;;;;;;;0.70;0.60;;;;;;;;;;4918327;29;20482;-80
2023/05/11 01:05:17;;;;;;;0.70;0.70;;;;;;;;;;4941603;29;20474;-82
2023/05/11 01:07:47;;;;;;;0.70;0.70;;;;;;;;;;4937661;29;20467;-81
2023/05/11 01:10:20;;;;;;;0.70;0.70;;;;;;;;;;4916799;29;20447;-80
2023/05/11 01:12:49;;;;;;;0.70;0.60;;;;;;;;;;4926434;29;20983;-80
2023/05/11 01:15:20;;;;;;;0.70;0.60;;;;;;;;;;4937097;29;20949;-80
2023/05/11 01:17:50;;;;;;;0.70;0.60;;;;;;;;;;4939826;29;20472;-80
2023/05/11 01:20:21;;;;;;;0.70;0.60;;;;;;;;;;4944412;28;20491;-79
2023/05/11 01:22:54;;;;;;;0.70;0.67;;;;;;;;;;4921738;29;20475;-79
2023/05/11 01:25:41;;;;;;;0.70;0.60;;;;;;;;;;4925086;29;20511;-79
2023/05/11 01:28:14;;;;;;;0.60;0.60;;;;;;;;;;4926112;29;20484;-82
2023/05/11 01:30:47;;;;;;;0.70;0.70;;;;;;;;;;4938911;29;20473;-79
2023/05/11 01:33:15;;;;;;;0.70;0.70;;;;;;;;;;4907670;29;20462;-80
2023/05/11 01:35:47;;;;;;;0.70;0.60;;;;;;;;;;4934894;29;20447;-81
2023/05/11 01:38:18;;;;;;;0.70;0.60;;;;;;;;;;4937492;29;20456;-80
2023/05/11 01:40:46;;;;;;;0.70;0.70;;;;;;;;;;4934746;29;20480;-77
2023/05/11 01:43:17;;;;;;;0.60;0.60;;;;;;;;;;4934575;29;21241;-79
2023/05/11 01:45:46;;;;;;;0.70;0.60;;;;;;;;;;4921181;29;20973;-81
2023/05/11 01:48:19;;;;;;;0.70;0.70;;;;;;;;;;4931606;29;20450;-82
2023/05/11 01:50:46;;;;;;;0.60;0.60;;;;;;;;;;4912802;29;20514;-81
2023/05/11 01:53:14;;;;;;;0.70;0.70;;;;;;;;;;4922114;29;20583;-81
2023/05/11 01:55:42;;;;;;;0.70;0.70;;;;;;;;;;4922860;29;20818;-82
2023/05/11 01:58:10;;;;;;;0.70;0.60;;;;;;;;;;4933983;29;20450;-82
2023/05/11 02:00:37;;;;;;;0.70;0.70;;;;;;;;;;4941494;29;20448;-80
2023/05/11 02:03:07;;;;;;;0.70;0.70;;;;;;;;;;4939874;29;20447;-81
2023/05/11 02:05:34;;;;;;;0.70;0.60;;;;;;;;;;4936948;29;20871;-81
2023/05/11 02:08:03;;;;;;;0.70;0.70;;;;;;;;;;4933065;29;20808;-79
2023/05/11 02:10:31;;;;;;;0.70;0.60;;;;;;;;;;4957675;28;20842;-78
2023/05/11 02:13:00;;;;;;;0.70;0.60;;;;;;;;;;4938080;29;20813;-79
2023/05/11 02:15:27;;;;;;;0.60;0.60;;;;;;;;;;4930652;29;20493;-81
2023/05/11 02:17:55;;;;;;;0.70;0.70;;;;;;;;;;4940101;29;20461;-80
2023/05/11 02:20:24;;;;;;;0.60;0.60;;;;;;;;;;4924264;29;20798;-80
2023/05/11 02:22:52;;;;;;;0.70;0.60;;;;;;;;;;4937775;29;20835;-82
2023/05/11 02:25:19;;;;;;;0.60;0.60;;;;;;;;;;4925915;29;20563;-81
2023/05/11 02:27:47;;;;;;;0.90;0.90;;;;;;;;;;4921457;29;20452;-79
2023/05/11 02:30:14;;;;;;;0.70;0.60;;;;;;;;;;4921191;29;20480;-81
2023/05/11 02:32:46;;;;;;;0.60;0.60;;;;;;;;;;4933778;29;20524;-82
2023/05/11 02:35:15;;;;;;;0.70;0.70;;;;;;;;;;4937088;29;20543;-81
2023/05/11 02:37:45;;;;;;;0.80;0.80;;;;;;;;;;4938998;29;20493;-80
2023/05/11 02:40:15;;;;;;;1.17;1.07;;;;;;;;;;4933325;29;20444;-81
2023/05/11 02:42:45;;;;;;;0.70;0.70;;;;;;;;;;4922728;29;20448;-80
2023/05/11 02:45:14;;;;;;;0.70;0.70;;;;;;;;;;4944973;29;20969;-80
2023/05/11 02:47:43;;;;;;;0.63;0.60;;;;;;;;;;4942481;29;20820;-81
2023/05/11 02:50:13;;;;;;;0.60;0.60;;;;;;;;;;4944899;29;20486;-79
2023/05/11 02:52:44;;;;;;;0.60;0.60;;;;;;;;;;4937068;29;20489;-78
2023/05/11 02:55:13;;;;;;;0.60;0.60;;;;;;;;;;4903599;29;20463;-78
2023/05/11 02:57:41;;;;;;;0.60;0.60;;;;;;;;;;4933414;29;20457;-80
2023/05/11 03:00:09;;;;;;;0.60;0.60;;;;;;;;;;4923203;29;20502;-80
2023/05/11 03:02:37;;;;;;;0.60;0.50;;;;;;;;;;4940163;29;20496;-80
2023/05/11 03:05:05;;;;;;;0.60;0.60;;;;;;;;;;4941190;29;20460;-81
2023/05/11 03:07:33;;;;;;;0.60;0.60;;;;;;;;;;4930390;29;20822;-81
2023/05/11 03:10:02;;;;;;;0.63;0.63;;;;;;;;;;4945525;29;20838;-81
2023/05/11 03:12:35;;;;;;;0.63;0.60;;;;;;;;;;4927981;29;20457;-80
2023/05/11 03:15:02;;;;;;;0.60;0.60;;;;;;;;;;4943312;29;20877;-80
2023/05/11 03:17:33;;;;;;;2.07;1.87;;;;;;;;;;4946462;28;20902;-80
2023/05/11 03:20:02;;;;;;;0.70;0.70;;;;;;;;;;4926878;29;20542;-81
2023/05/11 03:22:31;;;;;;;0.60;0.60;;;;;;;;;;4942422;29;20484;-80
2023/05/11 03:24:59;;;;;;;0.70;0.70;;;;;;;;;;4942631;29;20455;-81
2023/05/11 03:27:28;;;;;;;0.60;0.60;;;;;;;;;;4942767;29;20458;-79
2023/05/11 03:29:56;;;;;;;0.70;0.67;;;;;;;;;;4946149;29;20509;-80
2023/05/11 03:32:23;;;;;;;0.63;0.63;;;;;;;;;;4936308;28;20504;-81
2023/05/11 03:34:51;;;;;;;4.87;2.20;;;;;;;;;;4939296;29;20472;-81
2023/05/11 03:37:18;;;;;;;1.23;1.17;;;;;;;;;;4906315;29;20476;-81
2023/05/11 03:39:50;;;;;;;0.60;0.60;;;;;;;;;;4930437;29;20460;-80
2023/05/11 03:42:19;;;;;;;0.70;0.70;;;;;;;;;;4950500;28;20820;-80
2023/05/11 03:44:49;;;;;;;0.70;0.70;;;;;;;;;;4954882;28;20461;-81
2023/05/11 03:47:19;;;;;;;1.10;1.00;;;;;;;;;;4949842;28;20456;-81
2023/05/11 03:49:47;;;;;;;0.60;0.60;;;;;;;;;;4939431;29;20838;-80
2023/05/11 03:52:15;;;;;;;0.70;0.70;;;;;;;;;;4942700;28;20806;-80
2023/05/11 03:54:42;;;;;;;0.60;0.60;;;;;;;;;;4938872;29;20466;-81
2023/05/11 03:57:10;;;;;;;0.60;0.60;;;;;;;;;;4936970;29;20451;-81
2023/05/11 03:59:38;;;;;;;0.60;0.60;;;;;;;;;;4937301;29;20440;-80
2023/05/11 04:02:07;;;;;;;0.70;0.70;;;;;;;;;;4942821;29;20507;-81
2023/05/11 04:04:34;;;;;;;0.60;0.60;;;;;;;;;;4925787;29;20460;-82
2023/05/11 04:07:03;;;;;;;0.60;0.60;;;;;;;;;;4946513;28;21008;-78
2023/05/11 04:09:32;;;;;;;0.70;0.70;;;;;;;;;;4920805;29;20587;-79
2023/05/11 04:12:00;;;;;;;0.73;0.73;;;;;;;;;;4941273;29;20475;-80
2023/05/11 04:14:27;;;;;;;0.70;0.70;;;;;;;;;;4948292;29;20464;-80
2023/05/11 04:16:54;;;;;;;0.60;0.60;;;;;;;;;;4924918;29;20492;-80
2023/05/11 04:19:23;;;;;;;0.60;0.60;;;;;;;;;;4935194;29;20476;-81
2023/05/11 04:21:51;;;;;;;0.60;0.60;;;;;;;;;;4943460;29;20461;-81
2023/05/11 04:24:18;;;;;;;0.60;0.60;;;;;;;;;;4938883;29;20512;-80
2023/05/11 04:26:45;;;;;;;0.80;0.80;;;;;;;;;;4936618;29;20937;-81
2023/05/11 04:29:12;;;;;;;0.60;0.60;;;;;;;;;;4936233;28;20524;-79
2023/05/11 04:31:39;;;;;;;1.67;1.37;;;;;;;;;;4947176;28;20815;-81
2023/05/11 04:34:08;;;;;;;0.60;0.60;;;;;;;;;;4927350;29;20447;-82
2023/05/11 04:36:38;;;;;;;0.60;0.60;;;;;;;;;;4940733;28;20538;-81
2023/05/11 04:39:07;;;;;;;0.70;0.70;;;;;;;;;;4938467;29;20551;-80
2023/05/11 04:41:37;;;;;;;0.67;0.67;;;;;;;;;;4937622;29;20464;-79
2023/05/11 04:44:06;;;;;;;0.70;0.70;;;;;;;;;;4935556;29;20555;-80
2023/05/11 04:46:33;;;;;;;0.63;0.63;;;;;;;;;;4937101;28;20947;-79
2023/05/11 04:49:03;;;;;;;0.60;0.60;;;;;;;;;;4942254;29;20452;-78
2023/05/11 04:51:33;;;;;;;0.60;0.60;;;;;;;;;;4942370;29;20489;-81
2023/05/11 04:54:02;;;;;;;0.70;0.70;;;;;;;;;;4934880;29;20553;-81
2023/05/11 04:56:30;;;;;;;0.70;0.70;;;;;;;;;;4940392;29;20551;-80
2023/05/11 04:58:59;;;;;;;0.60;0.60;;;;;;;;;;4922715;29;20958;-81
2023/05/11 05:01:31;;;;;;;0.70;0.70;;;;;;;;;;4933087;29;20453;-82
2023/05/11 05:04:01;;;;;;;0.60;0.60;;;;;;;;;;4940414;29;20437;-81
2023/05/11 05:06:31;;;;;;;0.60;0.60;;;;;;;;;;4942324;29;20466;-81
2023/05/11 05:08:58;;;;;;;0.60;0.60;;;;;;;;;;4923010;29;20464;-82
2023/05/11 05:11:26;;;;;;;0.63;0.60;;;;;;;;;;4941372;29;20469;-81
2023/05/11 05:13:54;;;;;;;2.50;1.23;;;;;;;;;;4934347;29;20882;-80
2023/05/11 05:16:22;;;;;;;1.53;1.30;;;;;;;;;;4944800;29;20504;-81
2023/05/11 05:18:49;;;;;;;0.70;0.70;;;;;;;;;;4952423;28;20450;-78
2023/05/11 05:21:16;;;;;;;0.63;0.60;;;;;;;;;;4936806;29;20436;-79
2023/05/11 05:23:44;;;;;;;0.60;0.60;;;;;;;;;;4935867;29;20457;-82
2023/05/11 05:26:11;;;;;;;0.70;0.70;;;;;;;;;;4931212;29;20987;-79
2023/05/11 05:28:40;;;;;;;0.70;0.60;;;;;;;;;;4937845;28;20539;-81
2023/05/11 05:31:08;;;;;;;0.60;0.60;;;;;;;;;;4934341;29;20577;-81
2023/05/11 05:33:35;;;;;;;0.60;0.60;;;;;;;;;;4937853;29;20791;-80
2023/05/11 05:36:04;;;;;;;0.60;0.60;;;;;;;;;;4934350;29;20456;-82
2023/05/11 05:38:33;;;;;;;0.73;0.73;;;;;;;;;;4933424;29;20497;-82
2023/05/11 05:41:01;;;;;;;0.80;0.80;;;;;;;;;;4940838;29;20463;-82
2023/05/11 05:43:34;;;;;;;0.70;0.70;;;;;;;;;;4939719;29;20442;-81
2023/05/11 05:46:03;;;;;;;0.60;0.60;;;;;;;;;;4935734;29;20474;-81
2023/05/11 05:48:30;;;;;;;0.80;0.80;;;;;;;;;;4933809;29;20460;-80
2023/05/11 05:50:59;;;;;;;0.60;0.60;;;;;;;;;;4936469;29;20566;-82
2023/05/11 05:53:26;;;;;;;0.60;0.60;;;;;;;;;;4940022;28;20541;-80
2023/05/11 05:55:54;;;;;;;0.60;0.60;;;;;;;;;;4923555;29;20468;-82
2023/05/11 05:58:25;;;;;;;0.90;0.90;;;;;;;;;;4927185;29;20496;-82
2023/05/11 06:00:55;;;;;;;0.60;0.60;;;;;;;;;;4937087;29;20453;-81
2023/05/11 06:03:23;;;;;;;0.60;0.60;;;;;;;;;;4940212;29;20475;-79
2023/05/11 06:05:55;;;;;;;0.60;0.60;;;;;;;;;;4932883;29;20462;-81
2023/05/11 06:08:23;;;;;;;0.70;0.70;;;;;;;;;;4944910;29;20538;-81
2023/05/11 06:10:51;;;;;;;0.70;0.70;;;;;;;;;;4949600;29;21014;-81
2023/05/11 06:13:18;;;;;;;0.70;0.70;;;;;;;;;;4939491;29;20469;-81
2023/05/11 06:15:46;;;;;;;0.70;0.70;;;;;;;;;;4925036;29;20493;-81
2023/05/11 06:18:27;;;;;;;0.60;0.60;;;;;;;;;;4948675;29;20453;-81
2023/05/11 06:20:57;;;;;;;0.70;0.70;;;;;;;;;;4937194;28;20813;-82
2023/05/11 06:23:26;;;;;;;0.60;0.60;;;;;;;;;;4937859;29;20477;-81
2023/05/11 06:25:54;;;;;;;2.07;1.70;;;;;;;;;;4913085;29;20551;-81
2023/05/11 06:28:23;;;;;;;0.60;0.60;;;;;;;;;;4925043;29;20520;-80
2023/05/11 06:30:57;;;;;;;0.63;0.60;;;;;;;;;;4919907;29;20878;-81
2023/05/11 06:33:28;;;;;;;0.70;0.70;;;;;;;;;;4951584;28;20459;-81
2023/05/11 06:35:55;;;;;;;1.17;1.10;;;;;;;;;;4920253;29;20541;-80
2023/05/11 06:38:27;;;;;;;0.70;0.70;;;;;;;;;;4940385;29;20493;-79
2023/05/11 06:40:55;;;;;;;0.70;0.70;;;;;;;;;;4945105;28;20925;-78
2023/05/11 06:43:22;;;;;;;0.70;0.70;;;;;;;;;;4944667;29;20445;-80
2023/05/11 06:45:52;;;;;;;0.70;0.70;;;;;;;;;;4920353;29;20447;-80
2023/05/11 06:48:22;;;;;;;0.70;0.70;;;;;;;;;;4928251;29;21032;-79
2023/05/11 06:50:50;;;;;;;1.03;0.97;;;;;;;;;;4949075;28;20475;-80
2023/05/11 06:53:17;;;;;;;0.70;0.70;;;;;;;;;;4943457;29;20503;-79
2023/05/11 06:55:44;;;;;;;0.80;0.80;;;;;;;;;;4938701;29;20455;-80
2023/05/11 06:58:11;;;;;;;0.70;0.70;;;;;;;;;;4943338;29;20511;-81
2023/05/11 07:00:38;;;;;;;0.70;0.70;;;;;;;;;;4922154;29;20448;-82
2023/05/11 07:03:05;;;;;;;0.70;0.70;;;;;;;;;;4917480;29;20548;-80
2023/05/11 07:05:32;;;;;;;0.80;0.80;;;;;;;;;;4936064;29;20905;-80
2023/05/11 07:08:03;;;;;;;0.93;0.90;;;;;;;;;;4944408;29;20984;-79
2023/05/11 07:10:30;;;;;;;2.00;1.70;;;;;;;;;;4939715;29;20479;-80
2023/05/11 07:12:59;;;;;;;0.70;0.70;;;;;;;;;;4942073;29;20439;-80
2023/05/11 07:15:25;;;;;;;0.80;0.80;;;;;;;;;;4946862;29;20455;-81
2023/05/11 07:17:52;;;;;;;0.70;0.60;;;;;;;;;;4941430;29;20444;-80
2023/05/11 07:20:21;;;;;;;0.80;0.80;;;;;;;;;;4941394;29;20542;-80
2023/05/11 07:22:48;;;;;;;0.80;0.80;;;;;;;;;;4940818;29;20460;-78
2023/05/11 07:25:17;;;;;;;0.80;0.80;;;;;;;;;;4939559;29;20453;-80
2023/05/11 07:27:46;;;;;;;0.70;0.70;;;;;;;;;;4918756;29;20473;-79
2023/05/11 07:30:14;;;;;;;0.70;0.60;;;;;;;;;;4943708;29;20497;-79
2023/05/11 07:32:44;;;;;;;0.70;0.67;;;;;;;;;;4943560;29;20540;-78
2023/05/11 07:35:11;;;;;;;0.80;0.80;;;;;;;;;;4941472;29;20451;-80
2023/05/11 07:37:37;;;;;;;0.70;0.70;;;;;;;;;;4932474;28;20464;-80
2023/05/11 07:40:05;;;;;;;0.70;0.70;;;;;;;;;;4936672;29;20508;-80
2023/05/11 07:42:34;;;;;;;3.90;1.37;;;;;;;;;;4940574;29;20483;-79
2023/05/11 07:45:01;;;;;;;0.70;0.70;;;;;;;;;;4940652;29;20993;-79
2023/05/11 07:47:29;;;;;;;1.03;1.00;;;;;;;;;;4925367;29;20479;-77
2023/05/11 07:49:56;;;;;;;0.70;0.70;;;;;;;;;;4940643;29;20464;-79
2023/05/11 07:52:24;;;;;;;0.80;0.80;;;;;;;;;;4944363;29;20568;-77
2023/05/11 07:54:52;;;;;;;1.20;1.10;;;;;;;;;;4939913;29;20447;-77
2023/05/11 07:57:19;;;;;;;0.70;0.70;;;;;;;;;;4946477;29;20504;-77
2023/05/11 07:59:48;;;;;;;0.90;0.90;;;;;;;;;;4942928;29;20458;-77
2023/05/11 08:02:17;;;;;;;0.80;0.80;;;;;;;;;;4923040;29;20840;-78
2023/05/11 08:04:45;;;;;;;0.70;0.70;;;;;;;;;;4920565;29;20466;-78
2023/05/11 08:07:12;;;;;;;0.80;0.80;;;;;;;;;;4938348;29;20472;-79
2023/05/11 08:09:38;;;;;;;0.70;0.70;;;;;;;;;;4942226;29;20455;-78
2023/05/11 08:12:06;;;;;;;0.80;0.77;;;;;;;;;;4941451;29;20486;-79
2023/05/11 08:14:33;;;;;;;0.70;0.67;;;;;;;;;;4941430;29;20970;-78
2023/05/11 08:17:02;;;;;;;0.70;0.70;;;;;;;;;;4938754;29;20457;-77
2023/05/11 08:19:31;;;;;;;0.80;0.80;;;;;;;;;;4944374;29;20565;-79
2023/05/11 08:21:59;;;;;;;0.80;0.80;;;;;;;;;;4939308;29;20588;-78
2023/05/11 08:24:25;;;;;;;0.70;0.70;;;;;;;;;;4935482;29;20998;-78
2023/05/11 08:26:52;;;;;;;0.90;0.90;;;;;;;;;;4938786;29;20435;-78
2023/05/11 08:29:19;;;;;;;1.63;1.20;;;;;;;;;;4935781;29;20974;-78
2023/05/11 08:31:48;;;;;;;0.70;0.70;;;;;;;;;;4941066;29;20486;-77
2023/05/11 08:34:16;;;;;;;1.30;1.20;;;;;;;;;;4946734;29;20444;-79
2023/05/11 08:36:46;;;;;;;0.70;0.70;;;;;;;;;;4937780;29;20511;-76
2023/05/11 08:39:12;;;;;;;2.13;2.03;;;;;;;;;;4938436;29;20959;-77
2023/05/11 08:41:39;;;;;;;0.80;0.80;;;;;;;;;;4938363;29;20443;-77
2023/05/11 08:44:07;;;;;;;0.90;0.80;;;;;;;;;;4941727;29;20561;-77
2023/05/11 08:46:34;;;;;;;0.70;0.70;;;;;;;;;;4934371;29;20956;-77
2023/05/11 08:49:02;;;;;;;0.70;0.70;;;;;;;;;;4941502;28;20467;-75
2023/05/11 08:51:31;;;;;;;0.70;0.70;;;;;;;;;;4940656;29;20497;-76
2023/05/11 08:53:58;;;;;;;2.43;2.23;;;;;;;;;;4938457;29;20436;-76
2023/05/11 08:56:28;;;;;;;0.93;0.87;;;;;;;;;;4945996;29;20809;-76
2023/05/11 08:58:57;;;;;;;0.80;0.80;;;;;;;;;;4950775;28;20850;-77
2023/05/11 09:01:27;;;;;;;0.80;0.80;;;;;;;;;;4941342;29;20435;-78
2023/05/11 09:03:55;;;;;;;0.70;0.60;;;;;;;;;;4918337;29;20823;-75
2023/05/11 09:06:23;;;;;;;0.70;0.70;;;;;;;;;;4937262;29;21296;-78
2023/05/11 09:08:51;;;;;;;0.80;0.80;;;;;;;;;;4939007;29;20979;-78
2023/05/11 09:11:20;;;;;;;0.80;0.80;;;;;;;;;;4940924;29;20538;-76
2023/05/11 09:13:47;;;;;;;0.90;0.90;;;;;;;;;;4933628;29;20540;-76
2023/05/11 09:16:14;;;;;;;0.70;0.60;;;;;;;;;;4941938;29;21070;-75
2023/05/11 09:19:01;;;;;;;0.80;0.80;;;;;;;;;;4933669;29;20472;-76
2023/05/11 09:21:29;;;;;;;0.70;0.60;;;;;;;;;;4939361;29;20536;-76
2023/05/11 09:23:59;;;;;;;0.70;0.70;;;;;;;;;;4934405;29;21009;-77
2023/05/11 09:26:30;;;;;;;0.70;0.60;;;;;;;;;;4934243;29;20760;-76
2023/05/11 09:28:58;;;;;;;0.80;0.80;;;;;;;;;;4936100;29;20441;-76
2023/05/11 09:31:36;;;;;;;0.80;0.70;;;;;;;;;;4933539;29;20930;-76
2023/05/11 09:34:10;;;;;;;1.20;1.10;;;;;;;;;;4925023;29;20472;-76
2023/05/11 09:36:38;;;;;;;0.70;0.60;;;;;;;;;;4936175;29;20452;-76
2023/05/11 09:39:07;;;;;;;1.33;1.23;;;;;;;;;;4937042;29;20954;-77
2023/05/11 09:41:41;;;;;;;1.27;0.93;;;;;;;;;;4935871;29;20919;-76
2023/05/11 09:44:11;;;;;;;0.80;0.70;;;;;;;;;;4943501;29;20827;-76
2023/05/11 09:46:40;;;;;;;1.23;1.13;;;;;;;;;;4944791;29;20502;-76
2023/05/11 09:49:08;;;;;;;0.70;0.60;;;;;;;;;;4942207;29;20714;-77
2023/05/11 09:51:36;;;;;;;0.70;0.60;;;;;;;;;;4937349;29;21026;-77
2023/05/11 09:54:16;;;;;;;0.70;0.60;;;;;;;;;;4944703;28;20430;-76
2023/05/11 09:56:45;;;;;;;1.13;1.03;;;;;;;;;;4946586;29;20999;-75
2023/05/11 09:59:14;;;;;;;0.70;0.60;;;;;;;;;;4946576;29;20440;-76
2023/05/11 10:01:41;;;;;;;1.73;1.00;;;;;;;;;;4938442;28;20460;-76
2023/05/11 10:04:08;;;;;;;0.70;0.70;;;;;;;;;;4950259;29;21004;-73
2023/05/11 10:06:51;;;;;;;0.80;0.80;;;;;;;;;;4947013;29;20810;-76
2023/05/11 10:09:23;;;;;;;1.50;1.40;;;;;;;;;;4941353;29;20468;-76
2023/05/11 10:11:51;;;;;;;0.70;0.70;;;;;;;;;;4936193;29;20493;-75
2023/05/11 10:14:20;;;;;;;0.80;0.80;;;;;;;;;;4944136;29;20768;-76
2023/05/11 10:16:47;;;;;;;0.97;0.97;;;;;;;;;;4945279;29;20768;-76
2023/05/11 10:19:16;;;;;;;0.93;0.93;;;;;;;;;;4934453;29;20812;-77
2023/05/11 10:21:43;;;;;;;0.70;0.60;;;;;;;;;;4939661;29;20440;-76
2023/05/11 10:24:10;;;;;;;0.80;0.80;;;;;;;;;;4927809;29;20439;-76
2023/05/11 10:26:38;;;;;;;0.80;0.80;;;;;;;;;;4934573;28;20917;-77
2023/05/11 10:29:06;;;;;;;0.70;0.70;;;;;;;;;;4936221;29;20433;-77
2023/05/11 10:31:34;;;;;;;0.73;0.73;;;;;;;;;;4938156;29;20494;-78
2023/05/11 10:34:01;;;;;;;0.90;0.90;;;;;;;;;;4943506;28;20958;-77
2023/05/11 10:36:28;;;;;;;0.70;0.70;;;;;;;;;;4940869;29;20918;-79
2023/05/11 10:38:55;;;;;;;1.27;1.17;;;;;;;;;;4940074;29;20559;-76
2023/05/11 10:41:30;;;;;;;0.90;0.90;;;;;;;;;;4940261;29;20773;-77
2023/05/11 10:44:11;;;;;;;0.70;0.60;;;;;;;;;;4944048;29;20441;-77
2023/05/11 10:46:44;;;;;;;0.70;0.70;;;;;;;;;;4938926;29;20440;-75
2023/05/11 10:49:28;;;;;;;0.70;0.70;;;;;;;;;;4937324;29;20405;-77
2023/05/11 10:52:01;;;;;;;5.37;1.13;;;;;;;;;;4923777;29;20501;-76
2023/05/11 10:54:40;;;;;;;1.07;0.90;;;;;;;;;;4940448;29;20480;-77
2023/05/11 10:57:12;;;;;;;0.70;0.70;;;;;;;;;;4939995;29;20771;-75
2023/05/11 10:59:50;;;;;;;0.70;0.70;;;;;;;;;;4939755;29;21048;-75
2023/05/11 11:02:18;;;;;;;1.93;1.33;;;;;;;;;;4942289;28;21024;-76
2023/05/11 11:04:46;;;;;;;0.70;0.70;;;;;;;;;;4939159;29;20437;-76
2023/05/11 11:07:17;;;;;;;1.30;1.20;;;;;;;;;;4937755;29;20496;-77
2023/05/11 11:09:51;;;;;;;1.83;1.73;;;;;;;;;;4939190;29;20450;-78
2023/05/11 11:12:19;;;;;;;0.70;0.70;;;;;;;;;;4939208;29;20472;-77
2023/05/11 11:14:55;;;;;;;0.80;0.80;;;;;;;;;;4939132;28;20498;-79
2023/05/11 11:17:26;;;;;;;0.97;0.93;;;;;;;;;;4939582;29;20458;-77
2023/05/11 11:19:53;;;;;;;1.50;1.40;;;;;;;;;;4935418;29;20419;-77
2023/05/11 11:22:40;;;;;;;0.70;0.70;;;;;;;;;;4929150;29;20555;-76
2023/05/11 11:25:08;;;;;;;0.97;0.90;;;;;;;;;;4924398;29;20421;-76
2023/05/11 11:27:51;;;;;;;0.80;0.80;;;;;;;;;;4940759;29;20488;-77
2023/05/11 11:30:20;;;;;;;0.80;0.80;;;;;;;;;;4941895;29;20803;-77
2023/05/11 11:32:48;;;;;;;0.80;0.70;;;;;;;;;;4940880;29;20539;-77
2023/05/11 11:35:33;;;;;;;0.97;0.97;;;;;;;;;;4944603;28;20459;-78
2023/05/11 11:38:01;;;;;;;0.80;0.70;;;;;;;;;;4938579;29;20466;-77
2023/05/11 11:40:34;;;;;;;0.70;0.70;;;;;;;;;;4937641;29;20457;-78
2023/05/11 11:43:17;;;;;;;0.70;0.70;;;;;;;;;;4942584;29;20498;-78
2023/05/11 11:45:53;;;;;;;0.80;0.80;;;;;;;;;;4939584;29;20431;-77
2023/05/11 11:48:21;;;;;;;4.30;1.37;;;;;;;;;;4924961;29;20419;-80
2023/05/11 11:51:00;;;;;;;0.70;0.60;;;;;;;;;;4954176;28;20431;-77
2023/05/11 11:53:45;;;;;;;3.10;2.90;;;;;;;;;;4939631;29;20845;-76
2023/05/11 11:56:27;;;;;;;0.70;0.70;;;;;;;;;;4943924;29;20954;-76
2023/05/11 11:58:55;;;;;;;0.70;0.70;;;;;;;;;;4940945;29;20420;-76
2023/05/11 12:01:26;;;;;;;0.70;0.60;;;;;;;;;;4936571;29;20774;-77
2023/05/11 12:04:09;;;;;;;0.70;0.60;;;;;;;;;;4939197;28;20874;-76
2023/05/11 12:06:37;;;;;;;3.70;1.63;;;;;;;;;;4923389;29;20814;-77
2023/05/11 12:09:06;;;;;;;0.70;0.70;;;;;;;;;;4936482;29;20817;-77
2023/05/11 12:11:33;;;;;;;0.73;0.70;;;;;;;;;;4939472;29;20802;-77
2023/05/11 12:14:00;;;;;;;0.80;0.80;;;;;;;;;;4917919;29;20433;-80
2023/05/11 12:16:31;;;;;;;0.70;0.70;;;;;;;;;;4926644;29;20792;-79
2023/05/11 12:18:59;;;;;;;0.80;0.70;;;;;;;;;;4937611;29;20525;-75
2023/05/11 12:21:28;;;;;;;0.70;0.60;;;;;;;;;;4933537;29;20942;-79
2023/05/11 12:23:56;;;;;;;0.70;0.70;;;;;;;;;;4937713;29;20440;-78
2023/05/11 12:26:23;;;;;;;0.70;0.60;;;;;;;;;;4940773;29;20472;-80
2023/05/11 12:29:04;;;;;;;0.70;0.70;;;;;;;;;;4941246;29;20476;-81
2023/05/11 12:31:35;;;;;;;0.70;0.60;;;;;;;;;;4938535;29;20445;-78
2023/05/11 12:34:02;;;;;;;3.67;2.03;;;;;;;;;;4943273;29;20449;-77
2023/05/11 12:36:30;;;;;;;1.87;1.10;;;;;;;;;;4941847;28;20473;-78
2023/05/11 12:38:58;;;;;;;0.70;0.70;;;;;;;;;;4918922;29;20993;-80
2023/05/11 12:41:26;;;;;;;0.70;0.60;;;;;;;;;;4938528;29;20453;-78
2023/05/11 12:43:54;;;;;;;0.80;0.70;;;;;;;;;;4935846;29;20539;-76
2023/05/11 12:46:22;;;;;;;1.10;1.00;;;;;;;;;;4940286;29;20788;-80
2023/05/11 12:48:51;;;;;;;0.80;0.70;;;;;;;;;;4935952;29;20552;-80
2023/05/11 12:51:36;;;;;;;0.80;0.73;;;;;;;;;;4936655;29;20477;-80
2023/05/11 12:54:03;;;;;;;0.80;0.80;;;;;;;;;;4933528;29;20453;-77
2023/05/11 12:56:43;;;;;;;0.70;0.60;;;;;;;;;;4933947;29;20428;-78
2023/05/11 12:59:22;;;;;;;0.70;0.70;;;;;;;;;;4936993;29;20410;-77
2023/05/11 13:01:50;;;;;;;0.70;0.70;;;;;;;;;;4936706;29;20529;-79
2023/05/11 13:04:26;;;;;;;0.70;0.70;;;;;;;;;;4939424;28;20457;-78
2023/05/11 13:06:53;;;;;;;0.70;0.67;;;;;;;;;;4953850;28;20495;-78
2023/05/11 13:09:21;;;;;;;0.93;0.90;;;;;;;;;;4930336;29;20425;-77
2023/05/11 13:11:48;;;;;;;0.70;0.60;;;;;;;;;;4937586;29;20580;-80
2023/05/11 13:14:16;;;;;;;0.90;0.90;;;;;;;;;;4942922;29;20491;-77
2023/05/11 13:16:52;;;;;;;1.07;0.97;;;;;;;;;;4937419;28;20910;-78
2023/05/11 13:19:28;;;;;;;0.70;0.60;;;;;;;;;;4939678;29;20457;-78
2023/05/11 13:21:55;;;;;;;0.80;0.70;;;;;;;;;;4920322;29;20817;-79
2023/05/11 13:24:23;;;;;;;0.87;0.87;;;;;;;;;;4934067;29;20465;-80
2023/05/11 13:26:50;;;;;;;0.70;0.70;;;;;;;;;;4931314;29;20446;-78
2023/05/11 13:29:17;;;;;;;0.70;0.60;;;;;;;;;;4940620;28;20443;-78
2023/05/11 13:31:45;;;;;;;0.70;0.70;;;;;;;;;;4937464;29;21026;-80
2023/05/11 13:34:13;;;;;;;0.83;0.80;;;;;;;;;;4934126;29;20452;-77
2023/05/11 13:36:42;;;;;;;0.70;0.60;;;;;;;;;;4938754;29;20982;-81
2023/05/11 13:39:11;;;;;;;0.70;0.70;;;;;;;;;;4941370;29;20577;-79
2023/05/11 13:41:38;;;;;;;0.70;0.60;;;;;;;;;;4940984;29;20447;-79
2023/05/11 13:44:04;;;;;;;0.70;0.70;;;;;;;;;;4938959;29;20490;-78
2023/05/11 13:46:31;;;;;;;0.83;0.80;;;;;;;;;;4938660;29;20516;-78
2023/05/11 13:48:59;;;;;;;0.70;0.60;;;;;;;;;;4939069;29;20408;-79
2023/05/11 13:51:26;;;;;;;1.00;0.70;;;;;;;;;;4941130;29;20867;-78
2023/05/11 13:53:58;;;;;;;0.70;0.60;;;;;;;;;;4917142;29;20565;-78
2023/05/11 13:56:24;;;;;;;0.70;0.70;;;;;;;;;;4937623;29;20441;-79
2023/05/11 13:58:52;;;;;;;0.80;0.80;;;;;;;;;;4938612;29;20407;-80
2023/05/11 14:01:19;;;;;;;0.70;0.70;;;;;;;;;;4938156;29;20928;-78
2023/05/11 14:03:50;;;;;;;0.90;0.80;;;;;;;;;;4936860;29;20516;-79
2023/05/11 14:06:17;;;;;;;0.70;0.70;;;;;;;;;;4943329;29;20415;-79
2023/05/11 14:08:44;;;;;;;0.70;0.60;;;;;;;;;;4937223;29;20534;-80
2023/05/11 14:11:12;;;;;;;0.70;0.70;;;;;;;;;;4940938;29;20436;-80
2023/05/11 14:13:38;;;;;;;0.80;0.70;;;;;;;;;;4935726;29;20443;-78
2023/05/11 14:16:06;;;;;;;0.80;0.80;;;;;;;;;;4933024;29;20435;-77
2023/05/11 14:18:32;;;;;;;0.70;0.60;;;;;;;;;;4940179;29;20495;-80
2023/05/11 14:20:59;;;;;;;0.70;0.60;;;;;;;;;;4938740;28;20515;-79
2023/05/11 14:23:29;;;;;;;0.70;0.60;;;;;;;;;;4933013;29;20523;-77
2023/05/11 14:25:56;;;;;;;0.70;0.60;;;;;;;;;;4940494;29;20974;-80
2023/05/11 14:28:25;;;;;;;0.80;0.80;;;;;;;;;;4947195;28;20553;-78
2023/05/11 14:30:53;;;;;;;0.70;0.60;;;;;;;;;;4939557;29;20430;-79
2023/05/11 14:33:20;;;;;;;0.70;0.60;;;;;;;;;;4946357;29;20483;-77
2023/05/11 14:35:48;;;;;;;0.70;0.70;;;;;;;;;;4941870;29;20852;-79
2023/05/11 14:38:15;;;;;;;0.80;0.70;;;;;;;;;;4941493;29;20508;-79
2023/05/11 14:40:42;;;;;;;0.70;0.70;;;;;;;;;;4918106;29;20499;-82
2023/05/11 14:43:09;;;;;;;0.70;0.70;;;;;;;;;;4938606;28;20811;-80
2023/05/11 14:45:37;;;;;;;0.70;0.70;;;;;;;;;;4938753;29;20421;-79
2023/05/11 14:48:05;;;;;;;1.17;0.90;;;;;;;;;;4934293;29;20440;-79
2023/05/11 14:50:33;;;;;;;0.70;0.60;;;;;;;;;;4939177;29;20441;-78
2023/05/11 14:53:00;;;;;;;0.70;0.70;;;;;;;;;;4944362;29;20509;-80
2023/05/11 14:55:27;;;;;;;0.70;0.70;;;;;;;;;;4943123;29;20458;-77